Time;durP1;ratioP1;P1;durP2;ratioP2;P2;SDS_P1;SDS_P2;PMS_P1;PMS_P2;Temp;Humidity;BMP_temperature;BMP_pressure;BME280_temperature;BME280_humidity;BME280_pressure;Samples;Min_cycle;Max_cycle;Signal;HPM_P1;HPM_P2
2023/06/09 00:01:35;;;;;;;7.63;4.22;;;;;;;21.33;46.36;101340.69;5069755;28;20384;-64
2023/06/09 00:04:02;;;;;;;9.65;4.65;;;;;;;21.35;45.99;101345.22;5064355;28;20032;-64
2023/06/09 00:06:30;;;;;;;11.40;4.80;;;;;;;21.35;46.06;101342.38;5068730;28;20052;-64
2023/06/09 00:08:57;;;;;;;12.38;4.78;;;;;;;21.25;46.19;101335.75;5069814;28;20028;-64
2023/06/09 00:11:22;;;;;;;7.25;4.82;;;;;;;21.31;45.92;101342.13;5053076;28;20029;-64
2023/06/09 00:13:48;;;;;;;10.13;4.57;;;;;;;21.25;46.10;101335.75;5067681;28;20110;-64
2023/06/09 00:16:13;;;;;;;9.05;4.80;;;;;;;21.18;46.21;101338.16;5062088;28;20029;-64
2023/06/09 00:18:40;;;;;;;9.82;5.03;;;;;;;21.18;46.22;101342.94;5059420;28;20119;-64
2023/06/09 00:21:06;;;;;;;11.48;4.97;;;;;;;21.15;46.08;101347.25;5068370;28;20036;-64
2023/06/09 00:23:32;;;;;;;9.82;5.43;;;;;;;21.12;45.99;101339.41;5069796;28;20470;-64
2023/06/09 00:25:57;;;;;;;10.93;4.60;;;;;;;21.06;46.09;101330.22;5072909;28;20052;-64
2023/06/09 00:28:22;;;;;;;9.23;4.88;;;;;;;21.18;45.62;101335.34;5064846;28;20021;-64
2023/06/09 00:30:48;;;;;;;7.68;4.65;;;;;;;21.13;45.67;101326.97;5063737;28;20442;-64
2023/06/09 00:33:13;;;;;;;9.45;4.95;;;;;;;20.91;46.30;101327.69;5070868;28;20071;-64
2023/06/09 00:35:39;;;;;;;9.50;4.53;;;;;;;20.97;45.76;101328.41;5061019;28;20037;-65
2023/06/09 00:38:04;;;;;;;12.13;4.88;;;;;;;20.99;45.81;101326.13;5069672;28;20024;-65
2023/06/09 00:40:29;;;;;;;10.52;5.07;;;;;;;20.99;45.50;101335.44;5072326;28;20040;-64
2023/06/09 00:42:55;;;;;;;11.13;5.07;;;;;;;20.94;45.51;101327.03;5070393;28;20032;-64
2023/06/09 00:45:20;;;;;;;10.63;5.00;;;;;;;20.86;45.65;101321.28;5065475;28;20028;-65
2023/06/09 00:47:46;;;;;;;9.98;5.30;;;;;;;20.87;45.50;101329.47;5053327;28;20463;-64
2023/06/09 00:50:12;;;;;;;16.17;4.93;;;;;;;20.84;45.56;101330.91;5067359;28;20040;-64
2023/06/09 00:52:38;;;;;;;12.05;4.38;;;;;;;20.83;45.59;101332.06;5071032;28;20435;-64
2023/06/09 00:55:04;;;;;;;9.18;5.05;;;;;;;20.73;45.71;101326.59;5068692;28;20063;-64
2023/06/09 00:57:33;;;;;;;11.18;4.97;;;;;;;20.81;45.69;101323.06;5069150;28;20059;-64
2023/06/09 01:00:06;;;;;;;10.30;4.65;;;;;;;20.71;46.08;101328.91;5076256;28;20380;-64
2023/06/09 01:02:31;;;;;;;8.73;4.45;;;;;;;20.76;45.63;101323.16;5068320;28;20039;-64
2023/06/09 01:04:57;;;;;;;8.68;4.93;;;;;;;20.69;45.98;101324.72;5061020;28;20115;-64
2023/06/09 01:07:40;;;;;;;14.45;5.05;;;;;;;20.64;45.89;101317.19;5062623;28;20114;-64
2023/06/09 01:10:25;;;;;;;8.50;4.63;;;;;;;20.65;45.92;101318.03;5049719;28;20028;-64
2023/06/09 01:12:59;;;;;;;11.48;5.38;;;;;;;20.58;46.15;101319.25;5068737;28;20059;-63
2023/06/09 01:15:34;;;;;;;8.73;4.70;;;;;;;20.56;45.98;101321.56;5069779;28;20048;-63
2023/06/09 01:18:02;;;;;;;8.63;4.80;;;;;;;20.53;46.18;101319.34;5066572;28;20147;-64
2023/06/09 01:20:38;;;;;;;11.45;5.18;;;;;;;20.58;46.00;101313.59;5066335;28;20028;-64
2023/06/09 01:23:32;;;;;;;9.68;5.10;;;;;;;20.56;45.97;101303.78;5071161;28;20059;-64
2023/06/09 01:25:59;;;;;;;9.18;4.80;;;;;;;20.55;45.80;101302.09;5069598;28;20042;-64
2023/06/09 01:28:26;;;;;;;7.63;4.70;;;;;;;20.48;45.92;101310.13;5069686;28;20037;-64
2023/06/09 01:30:53;;;;;;;10.48;4.95;;;;;;;20.45;46.75;101307.91;5069498;28;20089;-64
2023/06/09 01:33:21;;;;;;;9.45;5.20;;;;;;;20.29;46.52;101302.53;5068740;28;20040;-64
2023/06/09 01:35:47;;;;;;;7.70;4.78;;;;;;;20.33;46.48;101306.41;5070688;28;20119;-64
2023/06/09 01:38:14;;;;;;;10.95;5.25;;;;;;;20.37;46.24;101308.63;5065807;28;20037;-64
2023/06/09 01:40:40;;;;;;;10.20;5.50;;;;;;;20.30;46.78;101300.53;5089950;28;20028;-64
2023/06/09 01:43:06;;;;;;;8.27;5.25;;;;;;;20.32;46.26;101303.91;5072683;28;20048;-64
2023/06/09 01:45:32;;;;;;;12.40;5.60;;;;;;;20.24;46.43;101302.63;5074631;28;20459;-64
2023/06/09 01:47:58;;;;;;;11.60;5.70;;;;;;;20.20;46.63;101306.34;5064917;28;20128;-64
2023/06/09 01:50:33;;;;;;;11.90;5.32;;;;;;;20.20;46.75;101300.69;5060885;28;20542;-65
2023/06/09 01:53:04;;;;;;;11.32;5.00;;;;;;;20.14;46.61;101302.78;5065682;28;20482;-64
2023/06/09 01:55:53;;;;;;;8.38;5.22;;;;;;;20.22;46.76;101301.25;5069925;28;20035;-64
2023/06/09 01:58:23;;;;;;;12.65;5.35;;;;;;;20.10;46.95;101302.56;5072672;28;20082;-64
2023/06/09 02:00:50;;;;;;;11.07;5.90;;;;;;;20.12;46.56;101296.59;5073508;28;20036;-64
2023/06/09 02:03:20;;;;;;;9.85;5.30;;;;;;;20.03;46.87;101296.47;5072040;28;20370;-65
2023/06/09 02:05:46;;;;;;;11.48;5.20;;;;;;;19.95;46.98;101296.31;5073856;28;20798;-64
2023/06/09 02:08:12;;;;;;;11.68;5.43;;;;;;;20.02;47.19;101297.63;5072343;28;20121;-64
2023/06/09 02:10:39;;;;;;;10.85;5.05;;;;;;;20.04;46.75;101298.16;5061415;28;20502;-64
2023/06/09 02:13:20;;;;;;;11.00;5.90;;;;;;;20.03;46.90;101290.00;5061775;28;20119;-64
2023/06/09 02:15:46;;;;;;;10.82;5.40;;;;;;;19.99;47.18;101295.41;5074153;28;20122;-64
2023/06/09 02:18:13;;;;;;;11.05;5.57;;;;;;;19.99;47.15;101280.47;5072350;28;20113;-64
2023/06/09 02:20:42;;;;;;;11.27;5.63;;;;;;;19.83;47.58;101283.53;5075276;28;20480;-64
2023/06/09 02:23:08;;;;;;;11.50;5.68;;;;;;;19.89;47.02;101283.47;5075808;28;20100;-64
2023/06/09 02:25:34;;;;;;;14.02;5.95;;;;;;;19.81;47.40;101285.84;5079664;28;20107;-64
2023/06/09 02:28:04;;;;;;;11.00;5.45;;;;;;;19.81;47.26;101280.19;5064931;28;20517;-64
2023/06/09 02:30:30;;;;;;;9.95;4.95;;;;;;;19.81;47.27;101279.38;5068401;28;20622;-65
2023/06/09 02:32:55;;;;;;;7.95;5.15;;;;;;;19.73;47.33;101282.84;5072722;28;20107;-64
2023/06/09 02:35:21;;;;;;;10.38;5.13;;;;;;;19.77;47.45;101279.13;5072840;28;20036;-65
2023/06/09 02:37:46;;;;;;;12.52;5.95;;;;;;;19.75;47.38;101284.22;5071446;28;20158;-64
2023/06/09 02:40:12;;;;;;;10.50;5.03;;;;;;;19.78;47.16;101283.63;5072030;28;20123;-64
2023/06/09 02:42:38;;;;;;;9.57;5.07;;;;;;;19.76;47.17;101279.41;5071359;28;20069;-64
2023/06/09 02:45:05;;;;;;;10.10;5.30;;;;;;;19.72;47.82;101272.72;5068958;28;20059;-64
2023/06/09 02:47:30;;;;;;;10.20;5.63;;;;;;;19.58;48.01;101278.25;5073576;28;20036;-64
2023/06/09 02:49:56;;;;;;;10.55;5.43;;;;;;;19.63;47.47;101277.38;5071524;28;20039;-64
2023/06/09 02:52:21;;;;;;;11.40;5.63;;;;;;;19.59;47.80;101271.47;5073431;28;20041;-64
2023/06/09 02:54:47;;;;;;;12.02;5.70;;;;;;;19.54;47.71;101280.84;5072047;28;20036;-64
2023/06/09 02:57:13;;;;;;;10.10;5.82;;;;;;;19.53;47.96;101284.81;5066336;28;20346;-64
2023/06/09 02:59:39;;;;;;;11.15;5.95;;;;;;;19.49;47.66;101277.25;5081054;28;20064;-64
2023/06/09 03:02:05;;;;;;;9.85;5.40;;;;;;;19.42;48.26;101285.25;5076413;28;20056;-64
2023/06/09 03:04:31;;;;;;;9.43;5.75;;;;;;;19.47;47.96;101282.34;5067876;28;20552;-65
2023/06/09 03:06:56;;;;;;;12.43;6.03;;;;;;;19.44;48.37;101280.97;5077107;28;20116;-64
2023/06/09 03:09:21;;;;;;;18.98;6.28;;;;;;;19.32;48.62;101287.03;5063533;28;20037;-65
2023/06/09 03:11:47;;;;;;;11.02;5.95;;;;;;;19.35;48.86;101289.25;5066578;28;20033;-64
2023/06/09 03:14:12;;;;;;;10.20;6.28;;;;;;;19.29;48.98;101286.81;5060728;28;20124;-64
2023/06/09 03:16:37;;;;;;;10.85;6.07;;;;;;;19.25;48.94;101294.16;5051585;28;20071;-64
2023/06/09 03:19:03;;;;;;;10.85;5.90;;;;;;;19.28;48.86;101296.38;5055258;28;20025;-64
2023/06/09 03:21:28;;;;;;;13.13;6.10;;;;;;;19.28;48.85;101291.59;5053975;28;20033;-64
2023/06/09 03:23:53;;;;;;;14.52;6.00;;;;;;;19.25;49.02;101285.72;5072902;28;20111;-65
2023/06/09 03:26:19;;;;;;;15.13;5.78;;;;;;;19.17;48.80;101292.84;5060482;28;20032;-64
2023/06/09 03:28:44;;;;;;;11.80;5.53;;;;;;;19.24;48.95;101295.31;5072361;28;20024;-64
2023/06/09 03:31:09;;;;;;;10.65;5.82;;;;;;;19.26;48.95;101296.72;5076822;28;20039;-64
2023/06/09 03:33:35;;;;;;;11.60;6.03;;;;;;;19.24;48.71;101290.53;5068998;28;20020;-64
2023/06/09 03:36:00;;;;;;;11.48;5.85;;;;;;;19.22;49.12;101286.34;5067791;28;20085;-64
2023/06/09 03:38:26;;;;;;;12.77;5.65;;;;;;;19.12;49.62;101290.94;5066385;28;20051;-64
2023/06/09 03:40:51;;;;;;;11.32;6.07;;;;;;;19.16;49.39;101295.97;5062898;28;20499;-64
2023/06/09 03:43:17;;;;;;;12.75;6.07;;;;;;;19.13;49.40;101294.59;5064704;28;20035;-64
2023/06/09 03:45:42;;;;;;;12.95;6.03;;;;;;;19.12;49.62;101296.56;5068368;28;20068;-64
2023/06/09 03:48:07;;;;;;;9.80;5.80;;;;;;;19.07;49.51;101309.88;5059176;28;20037;-64
2023/06/09 03:50:33;;;;;;;11.90;6.40;;;;;;;19.05;49.46;101310.16;5069360;28;20058;-64
2023/06/09 03:52:58;;;;;;;12.15;6.40;;;;;;;19.05;50.26;101326.22;5068757;28;20028;-65
2023/06/09 03:55:24;;;;;;;11.38;6.47;;;;;;;18.88;50.47;101316.25;5066534;28;20112;-65
2023/06/09 03:57:50;;;;;;;10.02;5.55;;;;;;;18.95;49.79;101309.47;5070663;28;20032;-65
2023/06/09 04:00:17;;;;;;;10.50;5.63;;;;;;;18.94;49.97;101313.38;5063654;28;20040;-65
2023/06/09 04:02:43;;;;;;;13.10;6.20;;;;;;;18.95;49.81;101317.91;5059144;28;20037;-65
2023/06/09 04:05:08;;;;;;;12.07;6.00;;;;;;;18.90;49.92;101313.16;5066373;28;20750;-65
2023/06/09 04:07:33;;;;;;;12.18;5.88;;;;;;;18.87;49.96;101313.75;5067948;28;20040;-65
2023/06/09 04:09:59;;;;;;;10.82;6.07;;;;;;;18.88;50.16;101316.25;5070118;28;20063;-65
2023/06/09 04:12:25;;;;;;;13.73;5.68;;;;;;;18.88;50.17;101310.63;5067299;28;20024;-65
2023/06/09 04:14:50;;;;;;;11.65;6.18;;;;;;;18.87;50.26;101317.41;5069527;28;20403;-65
2023/06/09 04:17:15;;;;;;;13.20;6.40;;;;;;;18.89;50.23;101315.13;5066809;28;20028;-65
2023/06/09 04:19:41;;;;;;;14.20;6.60;;;;;;;18.88;50.40;101312.63;5065589;28;20046;-65
2023/06/09 04:22:07;;;;;;;12.65;6.72;;;;;;;18.87;50.26;101320.22;5065477;28;20107;-62
2023/06/09 04:24:33;;;;;;;11.32;6.78;;;;;;;18.88;50.39;101315.44;5065422;28;20028;-64
2023/06/09 04:26:58;;;;;;;12.70;6.07;;;;;;;18.88;50.71;101313.47;5070229;28;20063;-64
2023/06/09 04:29:24;;;;;;;13.98;6.45;;;;;;;18.83;50.43;101319.16;5068246;28;20028;-64
2023/06/09 04:31:58;;;;;;;14.38;6.63;;;;;;;18.84;50.60;101319.97;5063174;28;20103;-64
2023/06/09 04:34:25;;;;;;;12.52;6.88;;;;;;;18.79;50.71;101322.84;5059285;28;20400;-64
2023/06/09 04:36:52;;;;;;;10.27;6.50;;;;;;;18.86;50.52;101328.94;5070962;28;20768;-64
2023/06/09 04:39:19;;;;;;;13.38;6.72;;;;;;;18.78;51.01;101322.00;5069482;28;20063;-64
2023/06/09 04:41:47;;;;;;;17.42;8.20;;;;;;;18.73;51.06;101324.03;5065983;28;21738;-64
2023/06/09 04:44:13;;;;;;;12.55;7.10;;;;;;;18.71;51.20;101329.97;5065018;28;20468;-63
2023/06/09 04:46:38;;;;;;;14.98;7.57;;;;;;;18.73;51.43;101322.03;5065540;28;20040;-64
2023/06/09 04:49:10;;;;;;;15.07;7.63;;;;;;;18.77;51.17;101325.94;5053163;28;20024;-64
2023/06/09 04:51:41;;;;;;;14.50;7.55;;;;;;;18.73;51.41;101322.03;5067187;28;20081;-64
2023/06/09 04:54:09;;;;;;;11.57;7.95;;;;;;;18.72;51.52;101328.81;5064892;28;20036;-63
2023/06/09 04:56:36;;;;;;;15.70;7.82;;;;;;;18.76;51.34;101326.25;5070454;28;20029;-63
2023/06/09 04:59:03;;;;;;;15.35;8.27;;;;;;;18.73;51.38;101329.66;5075263;28;20028;-64
2023/06/09 05:01:29;;;;;;;14.30;7.80;;;;;;;18.72;51.70;101336.41;5065272;28;20037;-64
2023/06/09 05:03:55;;;;;;;14.05;8.25;;;;;;;18.80;51.28;101330.16;5067290;28;20024;-64
2023/06/09 05:06:20;;;;;;;11.98;7.55;;;;;;;18.85;51.44;101328.09;5050639;28;20051;-63
2023/06/09 05:08:45;;;;;;;14.95;7.32;;;;;;;18.92;51.16;101324.13;5050890;28;20452;-63
2023/06/09 05:11:11;;;;;;;13.32;7.68;;;;;;;18.85;51.24;101344.97;5067707;28;20036;-64
2023/06/09 05:13:36;;;;;;;15.43;8.63;;;;;;;18.78;51.56;101333.22;5089963;28;20066;-63
2023/06/09 05:16:03;;;;;;;12.95;7.82;;;;;;;18.79;52.01;101332.13;5068621;28;20040;-64
2023/06/09 05:18:29;;;;;;;13.40;7.53;;;;;;;18.84;51.85;101337.69;5068242;28;20395;-67
2023/06/09 05:20:54;;;;;;;11.30;7.68;;;;;;;18.95;51.68;101329.16;5057486;28;20028;-63
2023/06/09 05:23:19;;;;;;;17.98;7.63;;;;;;;18.88;51.97;101332.31;5049976;28;20028;-64
2023/06/09 05:25:45;;;;;;;18.08;7.40;;;;;;;19.00;51.78;101334.72;5060167;28;20029;-64
2023/06/09 05:28:10;;;;;;;21.05;8.43;;;;;;;19.04;52.20;101344.22;5069956;28;20028;-63
2023/06/09 05:30:36;;;;;;;12.05;7.80;;;;;;;19.10;51.78;101328.97;5068242;28;20063;-64
2023/06/09 05:33:01;;;;;;;14.50;8.35;;;;;;;19.08;51.86;101337.72;5067012;28;20365;-63
2023/06/09 05:35:26;;;;;;;15.57;7.95;;;;;;;19.15;51.65;101342.16;5072436;28;20025;-63
2023/06/09 05:37:52;;;;;;;11.98;7.90;;;;;;;19.20;51.63;101333.63;5052372;28;20031;-64
2023/06/09 05:40:17;;;;;;;14.48;7.63;;;;;;;19.21;51.95;101336.16;5068217;28;20178;-64
2023/06/09 05:42:42;;;;;;;14.00;8.15;;;;;;;19.19;52.28;101343.22;5070355;28;20056;-64
2023/06/09 05:45:09;;;;;;;16.70;8.18;;;;;;;19.27;52.03;101345.38;5067956;28;20024;-64
2023/06/09 05:47:34;;;;;;;19.13;8.57;;;;;;;19.26;51.79;101349.34;5069026;28;20033;-64
2023/06/09 05:49:59;;;;;;;16.98;8.35;;;;;;;19.22;52.28;101339.81;5072786;28;20025;-64
2023/06/09 05:52:25;;;;;;;17.63;8.35;;;;;;;19.25;52.49;101337.22;5069310;28;20505;-63
2023/06/09 05:54:51;;;;;;;17.08;7.93;;;;;;;19.28;52.51;101333.81;5067891;28;20550;-63
2023/06/09 05:57:16;;;;;;;18.38;8.77;;;;;;;19.37;52.43;101337.66;5069572;28;20074;-63
2023/06/09 05:59:42;;;;;;;18.60;8.50;;;;;;;19.45;52.44;101340.91;5067539;28;20039;-63
2023/06/09 06:02:08;;;;;;;21.10;9.75;;;;;;;19.48;52.44;101332.72;5068206;28;20044;-63
2023/06/09 06:04:33;;;;;;;16.95;8.48;;;;;;;19.51;52.47;101339.72;5058130;28;20390;-64
2023/06/09 06:06:58;;;;;;;14.15;8.40;;;;;;;19.59;52.39;101337.06;5055804;28;20021;-63
2023/06/09 06:09:24;;;;;;;17.33;8.15;;;;;;;19.61;52.59;101332.03;5060199;28;20025;-64
2023/06/09 06:11:49;;;;;;;17.52;9.05;;;;;;;19.71;52.59;101333.00;5060585;28;20039;-63
2023/06/09 06:14:14;;;;;;;17.00;8.55;;;;;;;19.78;52.71;101334.31;5064043;28;20055;-63
2023/06/09 06:16:40;;;;;;;16.70;9.20;;;;;;;19.76;52.76;101333.78;5064167;28;20032;-64
2023/06/09 06:19:05;;;;;;;16.42;9.18;;;;;;;19.81;52.78;101330.91;5065991;28;20399;-63
2023/06/09 06:21:31;;;;;;;17.10;9.18;;;;;;;19.84;52.90;101338.72;5057690;28;20033;-64
2023/06/09 06:23:56;;;;;;;20.40;9.55;;;;;;;19.91;52.72;101331.88;5054545;28;20016;-63
2023/06/09 06:26:22;;;;;;;14.60;9.50;;;;;;;19.97;52.84;101333.50;5054360;28;20037;-62
2023/06/09 06:28:48;;;;;;;16.10;9.18;;;;;;;20.04;53.37;101328.28;5055165;28;20381;-62
2023/06/09 06:31:16;;;;;;;15.15;9.18;;;;;;;20.16;52.56;101334.31;5051534;28;20043;-63
2023/06/09 06:33:42;;;;;;;12.88;8.43;;;;;;;20.25;52.50;101332.47;5056497;28;20035;-63
2023/06/09 06:36:08;;;;;;;14.30;9.23;;;;;;;20.34;52.43;101329.78;5058193;28;20028;-62
2023/06/09 06:38:33;;;;;;;14.63;9.57;;;;;;;20.45;52.41;101336.09;5068807;28;20034;-63
2023/06/09 06:40:58;;;;;;;14.80;9.38;;;;;;;20.50;51.96;101331.22;5061014;28;20041;-63
2023/06/09 06:43:24;;;;;;;15.90;9.32;;;;;;;20.61;52.13;101333.88;5067351;28;20034;-63
2023/06/09 06:45:49;;;;;;;17.42;9.75;;;;;;;20.65;51.85;101327.31;5063920;28;20051;-64
2023/06/09 06:48:15;;;;;;;17.08;9.45;;;;;;;20.73;51.81;101337.88;5061308;28;20029;-63
2023/06/09 06:50:40;;;;;;;17.38;10.07;;;;;;;20.73;52.27;101329.41;5071384;28;20530;-63
2023/06/09 06:53:05;;;;;;;17.58;10.40;;;;;;;20.72;51.50;101324.94;5068058;28;20478;-62
2023/06/09 06:55:30;;;;;;;13.30;7.65;;;;;;;20.86;53.03;101335.41;5065792;28;20031;-63
2023/06/09 06:57:56;;;;;;;8.23;5.22;;;;;;;21.03;54.11;101325.19;5068489;28;20494;-64
2023/06/09 07:00:21;;;;;;;18.55;10.57;;;;;;;21.13;51.66;101324.13;5074442;28;20031;-62
2023/06/09 07:02:47;;;;;;;10.35;5.72;;;;;;;21.28;54.91;101329.47;5060879;28;20073;-63
2023/06/09 07:05:13;;;;;;;12.80;5.22;;;;;;;21.43;53.61;101333.19;5061800;28;20028;-62
2023/06/09 07:07:38;;;;;;;13.93;9.75;;;;;;;21.47;51.64;101328.56;5062090;28;20068;-64
2023/06/09 07:10:05;;;;;;;18.88;9.48;;;;;;;21.57;52.62;101333.97;5067816;28;20048;-63
2023/06/09 07:12:32;;;;;;;16.80;10.05;;;;;;;21.61;51.04;101340.66;5075393;28;20075;-62
2023/06/09 07:14:57;;;;;;;14.10;8.80;;;;;;;21.65;51.18;101336.06;5068925;28;20033;-62
2023/06/09 07:17:23;;;;;;;19.00;11.05;;;;;;;21.63;51.08;101338.38;5066371;28;20020;-62
2023/06/09 07:19:48;;;;;;;17.25;9.50;;;;;;;21.78;51.72;101340.03;5066766;28;20823;-63
2023/06/09 07:22:13;;;;;;;14.00;9.80;;;;;;;21.83;50.70;101339.06;5063811;28;20148;-63
2023/06/09 07:24:38;;;;;;;13.77;9.38;;;;;;;21.92;50.55;101338.00;5064718;28;20033;-65
2023/06/09 07:27:05;;;;;;;18.33;10.75;;;;;;;21.92;49.85;101338.00;5069629;28;20387;-63
2023/06/09 07:29:30;;;;;;;15.57;10.68;;;;;;;21.91;50.26;101341.16;5083217;28;20578;-63
2023/06/09 07:31:56;;;;;;;16.23;8.57;;;;;;;21.98;50.86;101339.56;5069172;28;20100;-63
2023/06/09 07:34:22;;;;;;;18.08;10.90;;;;;;;22.04;49.99;101343.91;5049127;28;20408;-63
2023/06/09 07:36:50;;;;;;;15.98;9.80;;;;;;;22.09;50.26;101340.16;5055414;28;20420;-63
2023/06/09 07:39:16;;;;;;;14.80;9.77;;;;;;;22.13;49.62;101346.88;5060145;28;20033;-63
2023/06/09 07:41:41;;;;;;;20.33;10.68;;;;;;;22.20;49.77;101344.41;5064996;28;20101;-63
2023/06/09 07:44:08;;;;;;;13.68;8.57;;;;;;;22.26;49.83;101343.16;5070157;28;20380;-63
2023/06/09 07:46:33;;;;;;;12.80;8.57;;;;;;;22.34;50.25;101346.38;5064714;28;20603;-63
2023/06/09 07:48:59;;;;;;;15.95;10.50;;;;;;;22.39;49.07;101343.41;5059381;28;20050;-63
2023/06/09 07:51:26;;;;;;;12.57;8.48;;;;;;;22.50;49.47;101342.84;5058201;28;20520;-64
2023/06/09 07:53:51;;;;;;;14.25;9.38;;;;;;;22.54;49.45;101343.03;5062181;28;20079;-61
2023/06/09 07:56:17;;;;;;;17.15;10.75;;;;;;;22.60;49.44;101338.91;5053501;28;20068;-60
2023/06/09 07:58:42;;;;;;;18.77;10.27;;;;;;;22.67;50.29;101333.63;5054448;28;20047;-60
2023/06/09 08:01:07;;;;;;;18.45;10.23;;;;;;;22.76;50.64;101337.34;5065121;28;20037;-60
2023/06/09 08:03:37;;;;;;;14.57;9.98;;;;;;;22.77;48.34;101332.53;5060378;28;20025;-60
2023/06/09 08:06:03;;;;;;;14.80;9.52;;;;;;;22.88;48.35;101330.25;5063223;28;20028;-59
2023/06/09 08:08:31;;;;;;;14.15;9.40;;;;;;;22.94;48.82;101335.47;5065320;28;20024;-60
2023/06/09 08:10:57;;;;;;;15.98;10.63;;;;;;;23.01;48.07;101333.00;5065475;28;20025;-61
2023/06/09 08:13:23;;;;;;;16.77;9.80;;;;;;;23.04;48.62;101334.38;5064005;28;20373;-72
2023/06/09 08:15:48;;;;;;;14.10;10.30;;;;;;;23.09;47.86;101322.88;5063804;28;20111;-67
2023/06/09 08:18:13;;;;;;;12.18;9.05;;;;;;;23.20;48.08;101338.44;5064336;28;20115;-69
2023/06/09 08:20:40;;;;;;;15.00;9.07;;;;;;;23.21;48.51;101325.09;5061700;28;20400;-69
2023/06/09 08:23:07;;;;;;;14.88;9.68;;;;;;;23.36;47.88;101323.84;5059565;28;20531;-69
2023/06/09 08:25:33;;;;;;;14.13;9.48;;;;;;;23.48;48.54;101315.53;5065719;28;20458;-69
2023/06/09 08:27:58;;;;;;;13.13;8.95;;;;;;;23.55;47.92;101321.56;5068523;28;20112;-69
2023/06/09 08:30:23;;;;;;;12.80;8.65;;;;;;;23.61;46.69;101323.06;5065071;28;20032;-69
2023/06/09 08:32:49;;;;;;;11.52;8.27;;;;;;;23.70;46.54;101318.28;5069689;28;20068;-69
2023/06/09 08:35:14;;;;;;;13.07;8.57;;;;;;;23.75;46.35;101323.78;5070078;28;20475;-69
2023/06/09 08:37:39;;;;;;;14.18;8.70;;;;;;;23.80;46.17;101314.28;5067751;28;20480;-69
2023/06/09 08:40:07;;;;;;;12.57;8.20;;;;;;;23.83;46.36;101315.63;5069803;28;20025;-69
2023/06/09 08:42:34;;;;;;;13.60;7.95;;;;;;;23.96;46.50;101323.13;5069089;28;20090;-69
2023/06/09 08:45:03;;;;;;;13.07;8.80;;;;;;;24.00;46.73;101327.81;5067165;28;20488;-68
2023/06/09 08:47:29;;;;;;;11.65;8.63;;;;;;;24.05;45.91;101309.81;5063965;28;20430;-68
2023/06/09 08:49:57;;;;;;;14.07;7.57;;;;;;;24.12;45.71;101321.47;5057018;28;20024;-68
2023/06/09 08:52:24;;;;;;;16.05;8.02;;;;;;;24.19;44.96;101318.16;5050978;28;20033;-69
2023/06/09 08:54:52;;;;;;;15.88;8.73;;;;;;;24.22;45.28;101315.47;5048854;28;20029;-69
2023/06/09 08:57:18;;;;;;;15.23;8.40;;;;;;;24.27;45.44;101311.63;5050023;28;20135;-69
2023/06/09 08:59:46;;;;;;;15.05;9.10;;;;;;;24.31;45.14;101311.78;5049981;28;20029;-69
2023/06/09 09:02:12;;;;;;;14.02;9.23;;;;;;;24.41;45.00;101306.66;5049713;28;20393;-69
2023/06/09 09:04:40;;;;;;;15.32;9.57;;;;;;;24.45;45.11;101303.97;5059547;28;20484;-69
2023/06/09 09:07:09;;;;;;;15.27;9.88;;;;;;;24.51;44.57;101311.13;5065993;28;20032;-69
2023/06/09 09:09:35;;;;;;;14.48;8.82;;;;;;;24.60;45.52;101303.44;5068632;28;20031;-70
2023/06/09 09:12:04;;;;;;;14.60;8.50;;;;;;;24.66;45.17;101302.09;5069938;28;20032;-69
2023/06/09 09:14:30;;;;;;;11.98;8.27;;;;;;;24.70;44.85;101300.22;5068889;28;20044;-69
2023/06/09 09:16:55;;;;;;;13.55;8.20;;;;;;;24.76;45.06;101300.03;5069197;28;20040;-69
2023/06/09 09:19:24;;;;;;;12.02;8.95;;;;;;;24.73;44.68;101305.25;5068678;28;20028;-70
2023/06/09 09:21:50;;;;;;;9.38;8.15;;;;;;;24.77;43.85;101296.06;5069863;28;20039;-70
2023/06/09 09:24:15;;;;;;;12.68;8.90;;;;;;;24.76;44.81;101289.53;5065599;28;20369;-71
2023/06/09 09:26:41;;;;;;;13.70;9.07;;;;;;;24.82;43.96;101304.38;5067258;28;20078;-70
2023/06/09 09:29:06;;;;;;;10.38;7.43;;;;;;;24.97;43.68;101295.31;5068224;28;20074;-69
2023/06/09 09:31:35;;;;;;;10.02;6.88;;;;;;;25.09;42.92;101288.91;5068507;28;20078;-68
2023/06/09 09:34:03;;;;;;;14.43;8.32;;;;;;;25.04;42.73;101277.75;5069538;28;20048;-70
2023/06/09 09:36:28;;;;;;;13.30;8.10;;;;;;;25.08;43.30;101279.56;5068334;28;20056;-70
2023/06/09 09:38:55;;;;;;;13.35;7.60;;;;;;;25.16;43.06;101287.22;5069893;28;20056;-70
2023/06/09 09:41:21;;;;;;;16.25;9.73;;;;;;;25.17;42.09;101280.38;5061129;28;20036;-70
2023/06/09 09:43:46;;;;;;;14.23;8.80;;;;;;;25.20;42.15;101276.84;5064457;28;20036;-70
2023/06/09 09:46:11;;;;;;;12.95;8.27;;;;;;;25.25;42.14;101277.84;5069412;28;20024;-69
2023/06/09 09:48:38;;;;;;;16.30;8.57;;;;;;;25.28;42.57;101277.16;5064071;28;20028;-70
2023/06/09 09:51:04;;;;;;;9.48;7.80;;;;;;;25.34;41.36;101272.91;5072693;28;20031;-70
2023/06/09 09:53:30;;;;;;;12.45;8.30;;;;;;;25.42;42.20;101283.41;5069031;28;20069;-71
2023/06/09 09:55:59;;;;;;;14.25;8.70;;;;;;;25.43;41.61;101279.41;5069069;28;20459;-69
2023/06/09 09:58:30;;;;;;;10.90;7.38;;;;;;;25.48;41.28;101282.03;5069350;28;22123;-69
2023/06/09 10:00:57;;;;;;;7.72;6.70;;;;;;;25.60;40.88;101267.91;5053526;28;20037;-69
2023/06/09 10:03:24;;;;;;;10.55;7.53;;;;;;;25.62;40.89;101270.41;5078538;28;20386;-70
2023/06/09 10:05:49;;;;;;;9.73;6.32;;;;;;;25.68;40.01;101266.19;5089043;28;20064;-63
2023/06/09 10:08:17;;;;;;;10.55;7.18;;;;;;;25.71;39.83;101262.66;5081735;28;20084;-64
2023/06/09 10:10:43;;;;;;;7.40;6.18;;;;;;;25.77;39.53;101269.78;5074236;28;20043;-64
2023/06/09 10:13:09;;;;;;;9.88;6.97;;;;;;;25.78;38.86;101271.50;5069279;28;20040;-64
2023/06/09 10:15:34;;;;;;;10.07;6.97;;;;;;;25.82;39.45;101269.63;5080631;28;20031;-67
2023/06/09 10:18:01;;;;;;;10.80;6.75;;;;;;;25.83;39.25;101264.78;5072500;28;20263;-70
2023/06/09 10:20:28;;;;;;;7.82;5.68;;;;;;;26.00;38.95;101266.63;5082443;28;20028;-63
2023/06/09 10:22:53;;;;;;;10.23;6.35;;;;;;;26.00;38.29;101255.25;5091714;28;20081;-64
2023/06/09 10:25:19;;;;;;;8.77;6.30;;;;;;;26.07;37.95;101269.75;5073939;28;20028;-64
2023/06/09 10:27:46;;;;;;;11.43;6.28;;;;;;;26.10;38.61;101261.34;5072231;28;20029;-64
2023/06/09 10:30:15;;;;;;;10.50;6.43;;;;;;;26.20;39.03;101258.06;5072249;28;20055;-63
2023/06/09 10:32:47;;;;;;;9.20;6.72;;;;;;;26.22;38.49;101259.75;5067675;28;20066;-64
2023/06/09 10:35:17;;;;;;;10.55;7.20;;;;;;;26.17;37.98;101244.56;5070767;28;20056;-66
2023/06/09 10:37:45;;;;;;;14.13;7.22;;;;;;;26.18;37.68;101256.78;5069553;28;20029;-69
2023/06/09 10:40:40;;;;;;;9.93;6.72;;;;;;;26.24;37.67;101260.22;5073841;28;20086;-68
2023/06/09 10:43:33;;;;;;;11.05;6.70;;;;;;;26.31;38.14;101251.94;5066835;28;20029;-67
2023/06/09 10:45:58;;;;;;;9.32;7.03;;;;;;;26.31;36.84;101241.38;5072229;28;20416;-67
2023/06/09 10:48:48;;;;;;;11.02;6.95;;;;;;;26.35;37.88;101242.34;5085541;28;20020;-68
2023/06/09 10:51:28;;;;;;;10.85;7.43;;;;;;;26.35;37.68;101241.53;5066367;28;20132;-68
2023/06/09 10:54:09;;;;;;;8.50;7.60;;;;;;;26.37;37.28;101241.97;5063510;28;20044;-69
2023/06/09 10:56:39;;;;;;;8.80;7.07;;;;;;;26.40;38.37;101235.59;5086118;28;20036;-70
2023/06/09 10:59:05;;;;;;;9.40;7.68;;;;;;;26.43;38.11;101235.72;5077538;28;20107;-67
2023/06/09 11:01:32;;;;;;;11.70;7.43;;;;;;;26.53;38.60;101233.66;5067346;28;20029;-61
2023/06/09 11:03:57;;;;;;;10.43;7.40;;;;;;;26.48;37.85;101236.72;5066772;28;20495;-59
2023/06/09 11:06:23;;;;;;;11.68;7.88;;;;;;;26.56;37.62;101230.09;5081505;28;20131;-63
2023/06/09 11:09:11;;;;;;;7.85;6.63;;;;;;;26.56;37.33;101228.06;5076042;28;20032;-63
2023/06/09 11:11:51;;;;;;;13.57;8.77;;;;;;;26.63;38.33;101225.47;5081319;28;20025;-60
2023/06/09 11:14:44;;;;;;;11.10;7.55;;;;;;;26.69;38.36;101228.94;5076154;28;20051;-64
2023/06/09 11:17:16;;;;;;;9.88;8.10;;;;;;;26.80;38.79;101220.75;5079076;28;20442;-64
2023/06/09 11:19:41;;;;;;;14.63;7.25;;;;;;;26.88;38.28;101219.81;5089189;28;20513;-63